sensor_id;sensor_type;location;lat;lon;timestamp;temperature;humidity
16066;DHT22;8137;48.952;8.970;2022-11-20T00:01:16;4.90;99.90
16066;DHT22;8137;48.952;8.970;2022-11-20T00:03:42;4.80;99.90
16066;DHT22;8137;48.952;8.970;2022-11-20T00:06:10;4.90;99.90
16066;DHT22;8137;48.952;8.970;2022-11-20T00:08:36;4.90;99.90
16066;DHT22;8137;48.952;8.970;2022-11-20T00:11:12;4.90;99.90
16066;DHT22;8137;48.952;8.970;2022-11-20T00:13:38;4.90;99.90
16066;DHT22;8137;48.952;8.970;2022-11-20T00:16:05;5.00;99.90
16066;DHT22;8137;48.952;8.970;2022-11-20T00:18:33;5.00;99.90
16066;DHT22;8137;48.952;8.970;2022-11-20T00:21:03;5.00;99.90
16066;DHT22;8137;48.952;8.970;2022-11-20T00:23:29;5.10;99.90
16066;DHT22;8137;48.952;8.970;2022-11-20T00:25:55;5.00;99.90
16066;DHT22;8137;48.952;8.970;2022-11-20T00:28:21;5.10;99.90
16066;DHT22;8137;48.952;8.970;2022-11-20T00:30:46;5.00;99.90
16066;DHT22;8137;48.952;8.970;2022-11-20T00:33:12;5.00;99.90
16066;DHT22;8137;48.952;8.970;2022-11-20T00:35:38;4.90;99.90
16066;DHT22;8137;48.952;8.970;2022-11-20T00:38:03;4.90;99.90
16066;DHT22;8137;48.952;8.970;2022-11-20T00:40:29;5.00;99.90
16066;DHT22;8137;48.952;8.970;2022-11-20T00:42:55;5.00;99.90
16066;DHT22;8137;48.952;8.970;2022-11-20T00:45:20;5.00;99.90
16066;DHT22;8137;48.952;8.970;2022-11-20T00:47:46;5.10;99.90
16066;DHT22;8137;48.952;8.970;2022-11-20T00:50:11;5.10;99.90
16066;DHT22;8137;48.952;8.970;2022-11-20T00:52:37;5.10;99.90
16066;DHT22;8137;48.952;8.970;2022-11-20T00:55:02;5.10;99.90
16066;DHT22;8137;48.952;8.970;2022-11-20T00:57:28;5.10;99.90
16066;DHT22;8137;48.952;8.970;2022-11-20T00:59:54;5.10;99.90
16066;DHT22;8137;48.952;8.970;2022-11-20T01:02:19;5.20;99.90
16066;DHT22;8137;48.952;8.970;2022-11-20T01:04:45;5.20;99.90
16066;DHT22;8137;48.952;8.970;2022-11-20T01:07:10;5.20;99.90
16066;DHT22;8137;48.952;8.970;2022-11-20T01:09:36;5.20;99.90
16066;DHT22;8137;48.952;8.970;2022-11-20T01:12:02;5.20;99.90
16066;DHT22;8137;48.952;8.970;2022-11-20T01:14:27;5.10;99.90
16066;DHT22;8137;48.952;8.970;2022-11-20T01:16:53;5.10;99.90
16066;DHT22;8137;48.952;8.970;2022-11-20T01:19:21;5.20;99.90
16066;DHT22;8137;48.952;8.970;2022-11-20T01:21:50;5.20;99.90
16066;DHT22;8137;48.952;8.970;2022-11-20T01:24:18;5.20;99.90
16066;DHT22;8137;48.952;8.970;2022-11-20T01:26:46;5.10;99.90
16066;DHT22;8137;48.952;8.970;2022-11-20T01:29:21;5.10;99.90
16066;DHT22;8137;48.952;8.970;2022-11-20T01:31:47;5.10;99.90
16066;DHT22;8137;48.952;8.970;2022-11-20T01:34:14;5.20;99.90
16066;DHT22;8137;48.952;8.970;2022-11-20T01:36:41;5.20;99.90
16066;DHT22;8137;48.952;8.970;2022-11-20T01:39:13;5.20;99.90
16066;DHT22;8137;48.952;8.970;2022-11-20T01:41:39;5.20;99.90
16066;DHT22;8137;48.952;8.970;2022-11-20T01:47:33;5.20;99.90
16066;DHT22;8137;48.952;8.970;2022-11-20T01:52:41;5.20;99.90
16066;DHT22;8137;48.952;8.970;2022-11-20T01:55:11;5.30;99.90
16066;DHT22;8137;48.952;8.970;2022-11-20T01:57:38;5.30;99.90
16066;DHT22;8137;48.952;8.970;2022-11-20T02:00:11;5.30;99.90
16066;DHT22;8137;48.952;8.970;2022-11-20T02:02:41;5.30;99.90
16066;DHT22;8137;48.952;8.970;2022-11-20T02:05:32;5.30;99.90
16066;DHT22;8137;48.952;8.970;2022-11-20T02:07:59;5.30;99.90
16066;DHT22;8137;48.952;8.970;2022-11-20T02:10:26;5.40;99.90
16066;DHT22;8137;48.952;8.970;2022-11-20T02:12:52;5.40;99.90
16066;DHT22;8137;48.952;8.970;2022-11-20T02:15:37;5.40;99.90
16066;DHT22;8137;48.952;8.970;2022-11-20T02:18:03;5.40;99.90
16066;DHT22;8137;48.952;8.970;2022-11-20T02:20:29;5.40;99.90
16066;DHT22;8137;48.952;8.970;2022-11-20T02:22:57;5.40;99.90
16066;DHT22;8137;48.952;8.970;2022-11-20T02:25:24;5.50;99.90
16066;DHT22;8137;48.952;8.970;2022-11-20T02:27:51;5.50;99.90
16066;DHT22;8137;48.952;8.970;2022-11-20T02:30:17;5.50;99.90
16066;DHT22;8137;48.952;8.970;2022-11-20T02:32:43;5.40;99.90
16066;DHT22;8137;48.952;8.970;2022-11-20T02:35:37;5.40;99.90
16066;DHT22;8137;48.952;8.970;2022-11-20T02:37:58;5.40;99.90
16066;DHT22;8137;48.952;8.970;2022-11-20T02:40:24;5.40;99.90
16066;DHT22;8137;48.952;8.970;2022-11-20T02:42:54;5.40;99.90
16066;DHT22;8137;48.952;8.970;2022-11-20T02:45:20;5.40;99.90
16066;DHT22;8137;48.952;8.970;2022-11-20T02:47:46;5.30;99.90
16066;DHT22;8137;48.952;8.970;2022-11-20T02:50:11;5.30;99.90
16066;DHT22;8137;48.952;8.970;2022-11-20T02:52:37;5.30;99.90
16066;DHT22;8137;48.952;8.970;2022-11-20T02:55:03;5.30;99.90
16066;DHT22;8137;48.952;8.970;2022-11-20T02:57:29;5.40;99.90
16066;DHT22;8137;48.952;8.970;2022-11-20T02:59:54;5.40;99.90
16066;DHT22;8137;48.952;8.970;2022-11-20T03:02:20;5.40;99.90
16066;DHT22;8137;48.952;8.970;2022-11-20T03:04:45;5.40;99.90
16066;DHT22;8137;48.952;8.970;2022-11-20T03:07:11;5.40;99.90
16066;DHT22;8137;48.952;8.970;2022-11-20T03:09:37;5.50;99.90
16066;DHT22;8137;48.952;8.970;2022-11-20T03:12:02;5.40;99.90
16066;DHT22;8137;48.952;8.970;2022-11-20T03:14:28;5.50;99.90
16066;DHT22;8137;48.952;8.970;2022-11-20T03:16:53;5.40;99.90
16066;DHT22;8137;48.952;8.970;2022-11-20T03:19:19;5.50;99.90
16066;DHT22;8137;48.952;8.970;2022-11-20T03:21:45;5.50;99.90
16066;DHT22;8137;48.952;8.970;2022-11-20T03:24:10;5.50;99.90
16066;DHT22;8137;48.952;8.970;2022-11-20T03:26:36;5.50;99.90
16066;DHT22;8137;48.952;8.970;2022-11-20T03:29:03;5.60;99.90
16066;DHT22;8137;48.952;8.970;2022-11-20T03:31:31;5.60;99.90
16066;DHT22;8137;48.952;8.970;2022-11-20T03:33:57;5.60;99.90
16066;DHT22;8137;48.952;8.970;2022-11-20T03:36:24;5.60;99.90
16066;DHT22;8137;48.952;8.970;2022-11-20T03:38:52;5.60;99.90
16066;DHT22;8137;48.952;8.970;2022-11-20T03:41:23;5.60;99.90
16066;DHT22;8137;48.952;8.970;2022-11-20T03:43:50;5.60;99.90
16066;DHT22;8137;48.952;8.970;2022-11-20T03:46:16;5.60;99.90
16066;DHT22;8137;48.952;8.970;2022-11-20T03:48:42;5.60;99.90
16066;DHT22;8137;48.952;8.970;2022-11-20T03:53:37;5.70;99.90
16066;DHT22;8137;48.952;8.970;2022-11-20T03:56:03;5.70;99.90
16066;DHT22;8137;48.952;8.970;2022-11-20T03:58:29;5.70;99.90
16066;DHT22;8137;48.952;8.970;2022-11-20T04:00:54;5.70;99.90
16066;DHT22;8137;48.952;8.970;2022-11-20T04:03:20;5.70;99.90
16066;DHT22;8137;48.952;8.970;2022-11-20T04:05:45;5.70;99.90
16066;DHT22;8137;48.952;8.970;2022-11-20T04:08:11;5.70;99.90
16066;DHT22;8137;48.952;8.970;2022-11-20T04:10:36;5.70;99.90
16066;DHT22;8137;48.952;8.970;2022-11-20T04:13:03;5.70;99.90
16066;DHT22;8137;48.952;8.970;2022-11-20T04:15:28;5.70;99.90
16066;DHT22;8137;48.952;8.970;2022-11-20T04:17:54;5.70;99.90
16066;DHT22;8137;48.952;8.970;2022-11-20T04:20:20;5.80;99.90
16066;DHT22;8137;48.952;8.970;2022-11-20T04:22:45;5.90;99.90
16066;DHT22;8137;48.952;8.970;2022-11-20T04:25:11;6.00;99.90
16066;DHT22;8137;48.952;8.970;2022-11-20T04:27:36;6.10;99.90
16066;DHT22;8137;48.952;8.970;2022-11-20T04:30:02;6.20;99.90
16066;DHT22;8137;48.952;8.970;2022-11-20T04:32:28;6.20;99.90
16066;DHT22;8137;48.952;8.970;2022-11-20T04:34:54;6.30;99.90
16066;DHT22;8137;48.952;8.970;2022-11-20T04:37:19;6.30;99.90
16066;DHT22;8137;48.952;8.970;2022-11-20T04:39:45;6.30;99.90
16066;DHT22;8137;48.952;8.970;2022-11-20T04:42:10;6.30;99.90
16066;DHT22;8137;48.952;8.970;2022-11-20T04:44:54;6.40;99.90
16066;DHT22;8137;48.952;8.970;2022-11-20T04:47:20;6.40;99.90
16066;DHT22;8137;48.952;8.970;2022-11-20T04:49:46;6.40;99.90
16066;DHT22;8137;48.952;8.970;2022-11-20T04:52:11;6.40;99.90
16066;DHT22;8137;48.952;8.970;2022-11-20T04:54:37;6.40;99.90
16066;DHT22;8137;48.952;8.970;2022-11-20T04:57:02;6.50;99.90
16066;DHT22;8137;48.952;8.970;2022-11-20T04:59:28;6.50;99.90
16066;DHT22;8137;48.952;8.970;2022-11-20T05:01:54;6.50;99.90
16066;DHT22;8137;48.952;8.970;2022-11-20T05:04:19;6.60;99.90
16066;DHT22;8137;48.952;8.970;2022-11-20T05:06:45;6.60;99.90
16066;DHT22;8137;48.952;8.970;2022-11-20T05:09:11;6.60;99.90
16066;DHT22;8137;48.952;8.970;2022-11-20T05:11:37;6.60;99.90
16066;DHT22;8137;48.952;8.970;2022-11-20T05:14:02;6.70;99.90
16066;DHT22;8137;48.952;8.970;2022-11-20T05:16:28;6.60;99.90
16066;DHT22;8137;48.952;8.970;2022-11-20T05:18:54;6.60;99.90
16066;DHT22;8137;48.952;8.970;2022-11-20T05:21:20;6.60;99.90
16066;DHT22;8137;48.952;8.970;2022-11-20T05:23:46;6.60;99.90
16066;DHT22;8137;48.952;8.970;2022-11-20T05:26:18;6.60;99.90
16066;DHT22;8137;48.952;8.970;2022-11-20T05:28:44;6.60;99.90
16066;DHT22;8137;48.952;8.970;2022-11-20T05:31:12;6.60;99.90
16066;DHT22;8137;48.952;8.970;2022-11-20T05:33:40;6.60;99.90
16066;DHT22;8137;48.952;8.970;2022-11-20T05:36:06;6.60;99.90
16066;DHT22;8137;48.952;8.970;2022-11-20T05:38:32;6.60;99.90
16066;DHT22;8137;48.952;8.970;2022-11-20T05:41:09;6.60;99.90
16066;DHT22;8137;48.952;8.970;2022-11-20T05:43:37;6.60;99.90
16066;DHT22;8137;48.952;8.970;2022-11-20T05:46:04;6.60;99.90
16066;DHT22;8137;48.952;8.970;2022-11-20T05:48:30;6.60;99.90
16066;DHT22;8137;48.952;8.970;2022-11-20T05:51:01;6.60;99.90
16066;DHT22;8137;48.952;8.970;2022-11-20T05:53:27;6.60;99.90
16066;DHT22;8137;48.952;8.970;2022-11-20T05:56:01;6.60;99.90
16066;DHT22;8137;48.952;8.970;2022-11-20T05:58:27;6.60;99.90
16066;DHT22;8137;48.952;8.970;2022-11-20T06:00:53;6.60;99.90
16066;DHT22;8137;48.952;8.970;2022-11-20T06:03:19;6.60;99.90
16066;DHT22;8137;48.952;8.970;2022-11-20T06:05:44;6.60;99.90
16066;DHT22;8137;48.952;8.970;2022-11-20T06:08:10;6.60;99.90
16066;DHT22;8137;48.952;8.970;2022-11-20T06:10:35;6.60;99.90
16066;DHT22;8137;48.952;8.970;2022-11-20T06:13:01;6.70;99.90
16066;DHT22;8137;48.952;8.970;2022-11-20T06:15:26;6.70;99.90
16066;DHT22;8137;48.952;8.970;2022-11-20T06:17:53;6.70;99.90
16066;DHT22;8137;48.952;8.970;2022-11-20T06:20:20;6.70;99.90
16066;DHT22;8137;48.952;8.970;2022-11-20T06:22:45;6.70;99.90
16066;DHT22;8137;48.952;8.970;2022-11-20T06:25:11;6.70;99.90
16066;DHT22;8137;48.952;8.970;2022-11-20T06:27:36;6.70;99.90
16066;DHT22;8137;48.952;8.970;2022-11-20T06:30:03;6.80;99.90
16066;DHT22;8137;48.952;8.970;2022-11-20T06:32:29;6.80;99.90
16066;DHT22;8137;48.952;8.970;2022-11-20T06:34:54;6.80;99.90
16066;DHT22;8137;48.952;8.970;2022-11-20T06:37:20;6.80;99.90
16066;DHT22;8137;48.952;8.970;2022-11-20T06:39:45;6.80;99.90
16066;DHT22;8137;48.952;8.970;2022-11-20T06:42:11;6.90;99.90
16066;DHT22;8137;48.952;8.970;2022-11-20T06:44:36;6.90;99.90
16066;DHT22;8137;48.952;8.970;2022-11-20T06:47:02;6.90;99.90
16066;DHT22;8137;48.952;8.970;2022-11-20T06:49:28;6.90;99.90
16066;DHT22;8137;48.952;8.970;2022-11-20T06:51:53;6.90;99.90
16066;DHT22;8137;48.952;8.970;2022-11-20T06:54:19;6.90;99.90
16066;DHT22;8137;48.952;8.970;2022-11-20T06:56:48;6.90;99.90
16066;DHT22;8137;48.952;8.970;2022-11-20T06:59:14;6.90;99.90
16066;DHT22;8137;48.952;8.970;2022-11-20T07:01:39;6.90;99.90
16066;DHT22;8137;48.952;8.970;2022-11-20T07:04:05;6.80;99.90
16066;DHT22;8137;48.952;8.970;2022-11-20T07:06:31;6.90;99.90
16066;DHT22;8137;48.952;8.970;2022-11-20T07:08:56;6.90;99.90
16066;DHT22;8137;48.952;8.970;2022-11-20T07:11:22;6.90;99.90
16066;DHT22;8137;48.952;8.970;2022-11-20T07:13:47;7.00;99.90
16066;DHT22;8137;48.952;8.970;2022-11-20T07:16:13;7.00;99.90
16066;DHT22;8137;48.952;8.970;2022-11-20T07:18:39;7.00;99.90
16066;DHT22;8137;48.952;8.970;2022-11-20T07:21:07;7.00;99.90
16066;DHT22;8137;48.952;8.970;2022-11-20T07:23:32;7.00;99.90
16066;DHT22;8137;48.952;8.970;2022-11-20T07:26:02;7.10;99.90
16066;DHT22;8137;48.952;8.970;2022-11-20T07:28:28;7.10;99.90
16066;DHT22;8137;48.952;8.970;2022-11-20T07:30:54;7.10;99.90
16066;DHT22;8137;48.952;8.970;2022-11-20T07:33:19;7.10;99.90
16066;DHT22;8137;48.952;8.970;2022-11-20T07:35:45;7.00;99.90
16066;DHT22;8137;48.952;8.970;2022-11-20T07:38:11;7.00;99.90
16066;DHT22;8137;48.952;8.970;2022-11-20T07:40:37;7.00;99.90
16066;DHT22;8137;48.952;8.970;2022-11-20T07:43:02;7.00;99.90
16066;DHT22;8137;48.952;8.970;2022-11-20T07:45:28;7.00;99.90
16066;DHT22;8137;48.952;8.970;2022-11-20T07:47:54;7.00;99.90
16066;DHT22;8137;48.952;8.970;2022-11-20T07:50:19;7.00;99.90
16066;DHT22;8137;48.952;8.970;2022-11-20T07:52:45;7.10;99.90
16066;DHT22;8137;48.952;8.970;2022-11-20T07:55:11;7.10;99.90
16066;DHT22;8137;48.952;8.970;2022-11-20T07:57:37;7.10;99.90
16066;DHT22;8137;48.952;8.970;2022-11-20T08:00:04;7.20;99.90
16066;DHT22;8137;48.952;8.970;2022-11-20T08:02:29;7.30;99.90
16066;DHT22;8137;48.952;8.970;2022-11-20T08:04:55;7.30;99.90
16066;DHT22;8137;48.952;8.970;2022-11-20T08:07:21;7.30;99.90
16066;DHT22;8137;48.952;8.970;2022-11-20T08:09:46;7.30;99.90
16066;DHT22;8137;48.952;8.970;2022-11-20T08:12:19;7.40;99.90
16066;DHT22;8137;48.952;8.970;2022-11-20T08:15:05;7.40;99.90
16066;DHT22;8137;48.952;8.970;2022-11-20T08:17:31;7.40;99.90
16066;DHT22;8137;48.952;8.970;2022-11-20T08:19:56;7.30;99.90
16066;DHT22;8137;48.952;8.970;2022-11-20T08:22:22;7.30;99.90
16066;DHT22;8137;48.952;8.970;2022-11-20T08:24:48;7.30;99.90
16066;DHT22;8137;48.952;8.970;2022-11-20T08:27:13;7.30;99.90
16066;DHT22;8137;48.952;8.970;2022-11-20T08:29:39;7.20;99.90
16066;DHT22;8137;48.952;8.970;2022-11-20T08:32:04;7.20;99.90
16066;DHT22;8137;48.952;8.970;2022-11-20T08:34:30;7.10;99.90
16066;DHT22;8137;48.952;8.970;2022-11-20T08:36:56;7.10;99.90
16066;DHT22;8137;48.952;8.970;2022-11-20T08:39:21;7.10;99.90
16066;DHT22;8137;48.952;8.970;2022-11-20T08:41:47;7.10;99.90
16066;DHT22;8137;48.952;8.970;2022-11-20T08:44:12;7.10;99.90
16066;DHT22;8137;48.952;8.970;2022-11-20T08:46:40;7.20;99.90
16066;DHT22;8137;48.952;8.970;2022-11-20T08:49:08;7.20;99.90
16066;DHT22;8137;48.952;8.970;2022-11-20T08:51:35;7.30;99.90
16066;DHT22;8137;48.952;8.970;2022-11-20T08:54:01;7.20;99.90
16066;DHT22;8137;48.952;8.970;2022-11-20T08:56:27;7.20;99.90
16066;DHT22;8137;48.952;8.970;2022-11-20T08:58:53;7.20;99.90
16066;DHT22;8137;48.952;8.970;2022-11-20T09:01:19;7.20;99.90
16066;DHT22;8137;48.952;8.970;2022-11-20T09:03:45;7.20;99.90
16066;DHT22;8137;48.952;8.970;2022-11-20T09:06:12;7.30;99.90
16066;DHT22;8137;48.952;8.970;2022-11-20T09:08:37;7.30;99.90
16066;DHT22;8137;48.952;8.970;2022-11-20T09:11:03;7.30;99.90
16066;DHT22;8137;48.952;8.970;2022-11-20T09:13:30;7.40;99.90
16066;DHT22;8137;48.952;8.970;2022-11-20T09:16:02;7.40;99.90
16066;DHT22;8137;48.952;8.970;2022-11-20T09:18:29;7.40;99.90
16066;DHT22;8137;48.952;8.970;2022-11-20T09:21:02;7.40;99.90
16066;DHT22;8137;48.952;8.970;2022-11-20T09:23:31;7.40;99.90
16066;DHT22;8137;48.952;8.970;2022-11-20T09:25:57;7.40;99.90
16066;DHT22;8137;48.952;8.970;2022-11-20T09:28:25;7.50;99.90
16066;DHT22;8137;48.952;8.970;2022-11-20T09:30:51;7.50;99.90
16066;DHT22;8137;48.952;8.970;2022-11-20T09:33:17;7.60;99.90
16066;DHT22;8137;48.952;8.970;2022-11-20T09:35:43;7.60;99.90
16066;DHT22;8137;48.952;8.970;2022-11-20T09:38:09;7.70;99.90
16066;DHT22;8137;48.952;8.970;2022-11-20T09:40:39;7.70;99.90
16066;DHT22;8137;48.952;8.970;2022-11-20T09:43:19;7.70;99.90
16066;DHT22;8137;48.952;8.970;2022-11-20T09:52:09;7.70;99.90
16066;DHT22;8137;48.952;8.970;2022-11-20T09:54:40;7.70;99.90
16066;DHT22;8137;48.952;8.970;2022-11-20T09:57:15;7.70;99.90
16066;DHT22;8137;48.952;8.970;2022-11-20T09:59:50;7.60;99.90
16066;DHT22;8137;48.952;8.970;2022-11-20T10:04:53;7.50;99.90
16066;DHT22;8137;48.952;8.970;2022-11-20T10:07:41;7.50;99.90
16066;DHT22;8137;48.952;8.970;2022-11-20T10:10:16;7.50;99.90
16066;DHT22;8137;48.952;8.970;2022-11-20T10:15:46;7.50;99.90
16066;DHT22;8137;48.952;8.970;2022-11-20T10:18:47;7.60;99.90
16066;DHT22;8137;48.952;8.970;2022-11-20T10:30:18;7.60;99.90
16066;DHT22;8137;48.952;8.970;2022-11-20T10:32:52;7.60;99.90
16066;DHT22;8137;48.952;8.970;2022-11-20T10:35:35;7.60;99.90
16066;DHT22;8137;48.952;8.970;2022-11-20T10:38:09;7.60;99.90
16066;DHT22;8137;48.952;8.970;2022-11-20T10:40:46;7.60;99.90
16066;DHT22;8137;48.952;8.970;2022-11-20T10:43:39;7.60;99.90
16066;DHT22;8137;48.952;8.970;2022-11-20T10:46:09;7.50;99.90
16066;DHT22;8137;48.952;8.970;2022-11-20T10:48:38;7.50;99.90
16066;DHT22;8137;48.952;8.970;2022-11-20T10:54:00;7.50;99.90
16066;DHT22;8137;48.952;8.970;2022-11-20T10:56:50;7.50;99.90
16066;DHT22;8137;48.952;8.970;2022-11-20T11:02:15;7.50;99.90
16066;DHT22;8137;48.952;8.970;2022-11-20T11:04:45;7.60;99.90
16066;DHT22;8137;48.952;8.970;2022-11-20T11:07:30;7.60;99.90
16066;DHT22;8137;48.952;8.970;2022-11-20T11:09:59;7.80;99.90
16066;DHT22;8137;48.952;8.970;2022-11-20T11:12:27;7.90;99.90
16066;DHT22;8137;48.952;8.970;2022-11-20T11:14:55;8.20;99.90
16066;DHT22;8137;48.952;8.970;2022-11-20T11:17:25;8.60;99.90
16066;DHT22;8137;48.952;8.970;2022-11-20T11:22:29;9.20;99.90
16066;DHT22;8137;48.952;8.970;2022-11-20T11:24:55;9.50;99.90
16066;DHT22;8137;48.952;8.970;2022-11-20T11:27:21;9.30;99.90
16066;DHT22;8137;48.952;8.970;2022-11-20T11:29:46;9.30;99.90
16066;DHT22;8137;48.952;8.970;2022-11-20T11:32:20;9.30;99.90
16066;DHT22;8137;48.952;8.970;2022-11-20T11:35:04;9.50;99.90
16066;DHT22;8137;48.952;8.970;2022-11-20T11:37:35;9.80;99.90
16066;DHT22;8137;48.952;8.970;2022-11-20T11:40:04;9.80;99.90
16066;DHT22;8137;48.952;8.970;2022-11-20T11:42:30;9.90;99.90
16066;DHT22;8137;48.952;8.970;2022-11-20T11:44:58;9.70;99.90
16066;DHT22;8137;48.952;8.970;2022-11-20T11:50:21;9.70;99.90
16066;DHT22;8137;48.952;8.970;2022-11-20T11:52:56;9.40;99.90
16066;DHT22;8137;48.952;8.970;2022-11-20T11:55:43;9.10;99.90
16066;DHT22;8137;48.952;8.970;2022-11-20T12:00:46;9.00;99.90
16066;DHT22;8137;48.952;8.970;2022-11-20T12:03:19;9.20;99.90
16066;DHT22;8137;48.952;8.970;2022-11-20T12:05:51;9.20;99.90
16066;DHT22;8137;48.952;8.970;2022-11-20T12:08:27;9.10;99.90
16066;DHT22;8137;48.952;8.970;2022-11-20T12:13:55;9.30;99.90
16066;DHT22;8137;48.952;8.970;2022-11-20T12:16:24;9.30;99.90
16066;DHT22;8137;48.952;8.970;2022-11-20T12:18:51;9.40;99.90
16066;DHT22;8137;48.952;8.970;2022-11-20T12:21:20;9.50;99.90
16066;DHT22;8137;48.952;8.970;2022-11-20T12:27:05;9.90;99.90
16066;DHT22;8137;48.952;8.970;2022-11-20T12:30:09;10.00;99.90
16066;DHT22;8137;48.952;8.970;2022-11-20T12:33:01;10.00;99.90
16066;DHT22;8137;48.952;8.970;2022-11-20T12:35:40;10.20;99.90
16066;DHT22;8137;48.952;8.970;2022-11-20T12:41:27;10.30;99.90
16066;DHT22;8137;48.952;8.970;2022-11-20T12:50:32;10.00;99.90
16066;DHT22;8137;48.952;8.970;2022-11-20T12:55:49;9.70;99.90
16066;DHT22;8137;48.952;8.970;2022-11-20T12:58:36;9.30;99.90
16066;DHT22;8137;48.952;8.970;2022-11-20T13:06:51;8.90;99.90
16066;DHT22;8137;48.952;8.970;2022-11-20T13:09:19;8.80;99.90
16066;DHT22;8137;48.952;8.970;2022-11-20T13:14:51;8.80;99.90
16066;DHT22;8137;48.952;8.970;2022-11-20T13:20:18;8.70;99.90
16066;DHT22;8137;48.952;8.970;2022-11-20T13:22:55;8.70;99.90
16066;DHT22;8137;48.952;8.970;2022-11-20T13:25:39;8.80;99.90
16066;DHT22;8137;48.952;8.970;2022-11-20T13:28:28;8.80;99.90
16066;DHT22;8137;48.952;8.970;2022-11-20T13:30:55;8.80;99.90
16066;DHT22;8137;48.952;8.970;2022-11-20T13:33:32;8.70;99.90
16066;DHT22;8137;48.952;8.970;2022-11-20T13:36:04;8.80;99.90
16066;DHT22;8137;48.952;8.970;2022-11-20T13:38:50;8.70;99.90
16066;DHT22;8137;48.952;8.970;2022-11-20T13:41:36;8.70;99.90
16066;DHT22;8137;48.952;8.970;2022-11-20T13:44:26;8.60;99.90
16066;DHT22;8137;48.952;8.970;2022-11-20T13:46:54;8.60;99.90
16066;DHT22;8137;48.952;8.970;2022-11-20T13:49:31;8.80;99.90
16066;DHT22;8137;48.952;8.970;2022-11-20T13:57:35;9.00;99.90
16066;DHT22;8137;48.952;8.970;2022-11-20T14:00:13;9.10;99.90
16066;DHT22;8137;48.952;8.970;2022-11-20T14:02:40;9.10;99.90
16066;DHT22;8137;48.952;8.970;2022-11-20T14:05:22;9.00;99.90
16066;DHT22;8137;48.952;8.970;2022-11-20T14:07:49;8.90;99.90
16066;DHT22;8137;48.952;8.970;2022-11-20T14:10:25;8.90;99.90
16066;DHT22;8137;48.952;8.970;2022-11-20T14:12:52;8.80;99.90
16066;DHT22;8137;48.952;8.970;2022-11-20T14:15:34;8.80;99.90
16066;DHT22;8137;48.952;8.970;2022-11-20T14:18:12;8.90;99.90
16066;DHT22;8137;48.952;8.970;2022-11-20T14:20:38;8.80;99.90
16066;DHT22;8137;48.952;8.970;2022-11-20T14:23:04;8.80;99.90
16066;DHT22;8137;48.952;8.970;2022-11-20T14:25:30;8.80;99.90
16066;DHT22;8137;48.952;8.970;2022-11-20T14:27:58;8.70;99.90
16066;DHT22;8137;48.952;8.970;2022-11-20T14:30:43;8.70;99.90
16066;DHT22;8137;48.952;8.970;2022-11-20T14:33:11;8.70;99.90
16066;DHT22;8137;48.952;8.970;2022-11-20T14:35:44;8.70;99.90
16066;DHT22;8137;48.952;8.970;2022-11-20T14:38:13;8.60;99.90
16066;DHT22;8137;48.952;8.970;2022-11-20T14:40:39;8.60;99.90
16066;DHT22;8137;48.952;8.970;2022-11-20T14:43:24;8.60;99.90
16066;DHT22;8137;48.952;8.970;2022-11-20T14:46:04;8.60;99.90
16066;DHT22;8137;48.952;8.970;2022-11-20T14:48:46;8.50;99.90
16066;DHT22;8137;48.952;8.970;2022-11-20T14:51:32;8.50;99.90
16066;DHT22;8137;48.952;8.970;2022-11-20T14:56:34;8.30;99.90
16066;DHT22;8137;48.952;8.970;2022-11-20T14:59:00;8.30;99.90
16066;DHT22;8137;48.952;8.970;2022-11-20T15:01:30;8.30;99.90
16066;DHT22;8137;48.952;8.970;2022-11-20T15:04:06;8.20;99.90
16066;DHT22;8137;48.952;8.970;2022-11-20T15:06:32;8.10;99.90
16066;DHT22;8137;48.952;8.970;2022-11-20T15:08:58;8.00;99.90
16066;DHT22;8137;48.952;8.970;2022-11-20T15:11:28;8.00;99.90
16066;DHT22;8137;48.952;8.970;2022-11-20T15:13:55;7.90;99.90
16066;DHT22;8137;48.952;8.970;2022-11-20T15:16:22;7.80;99.90
16066;DHT22;8137;48.952;8.970;2022-11-20T15:18:49;7.70;99.90
16066;DHT22;8137;48.952;8.970;2022-11-20T15:21:16;7.60;99.90
16066;DHT22;8137;48.952;8.970;2022-11-20T15:23:43;7.50;99.90
16066;DHT22;8137;48.952;8.970;2022-11-20T15:26:09;7.40;99.90
16066;DHT22;8137;48.952;8.970;2022-11-20T15:28:43;7.40;99.90
16066;DHT22;8137;48.952;8.970;2022-11-20T15:31:13;7.30;99.90
16066;DHT22;8137;48.952;8.970;2022-11-20T15:33:39;7.20;99.90
16066;DHT22;8137;48.952;8.970;2022-11-20T15:36:04;7.10;99.90
16066;DHT22;8137;48.952;8.970;2022-11-20T15:38:30;7.10;99.90
16066;DHT22;8137;48.952;8.970;2022-11-20T15:40:56;7.00;99.90
16066;DHT22;8137;48.952;8.970;2022-11-20T15:43:22;7.00;99.90
16066;DHT22;8137;48.952;8.970;2022-11-20T15:48:39;7.00;99.90
16066;DHT22;8137;48.952;8.970;2022-11-20T15:53:37;6.90;99.90
16066;DHT22;8137;48.952;8.970;2022-11-20T15:56:04;6.90;99.90
16066;DHT22;8137;48.952;8.970;2022-11-20T15:58:30;6.80;99.90
16066;DHT22;8137;48.952;8.970;2022-11-20T16:00:55;6.90;99.90
16066;DHT22;8137;48.952;8.970;2022-11-20T16:03:22;6.90;99.90
16066;DHT22;8137;48.952;8.970;2022-11-20T16:05:47;6.80;99.90
16066;DHT22;8137;48.952;8.970;2022-11-20T16:08:13;6.80;99.90
16066;DHT22;8137;48.952;8.970;2022-11-20T16:10:39;6.80;99.90
16066;DHT22;8137;48.952;8.970;2022-11-20T16:13:15;6.80;99.90
16066;DHT22;8137;48.952;8.970;2022-11-20T16:16:06;6.80;99.90
16066;DHT22;8137;48.952;8.970;2022-11-20T16:18:34;6.80;99.90
16066;DHT22;8137;48.952;8.970;2022-11-20T16:21:00;6.80;99.90
16066;DHT22;8137;48.952;8.970;2022-11-20T16:23:25;6.80;99.90
16066;DHT22;8137;48.952;8.970;2022-11-20T16:25:51;6.80;99.90
16066;DHT22;8137;48.952;8.970;2022-11-20T16:28:17;6.90;99.90
16066;DHT22;8137;48.952;8.970;2022-11-20T16:30:43;6.90;99.90
16066;DHT22;8137;48.952;8.970;2022-11-20T16:33:15;6.90;99.90
16066;DHT22;8137;48.952;8.970;2022-11-20T16:35:41;6.80;99.90
16066;DHT22;8137;48.952;8.970;2022-11-20T16:38:06;6.80;99.90
16066;DHT22;8137;48.952;8.970;2022-11-20T16:40:32;6.80;99.90
16066;DHT22;8137;48.952;8.970;2022-11-20T16:43:07;6.80;99.90
16066;DHT22;8137;48.952;8.970;2022-11-20T16:45:32;6.80;99.90
16066;DHT22;8137;48.952;8.970;2022-11-20T16:47:58;6.80;99.90
16066;DHT22;8137;48.952;8.970;2022-11-20T16:50:23;6.80;99.90
16066;DHT22;8137;48.952;8.970;2022-11-20T16:52:49;6.80;99.90
16066;DHT22;8137;48.952;8.970;2022-11-20T16:55:14;6.80;99.90
16066;DHT22;8137;48.952;8.970;2022-11-20T16:57:40;6.70;99.90
16066;DHT22;8137;48.952;8.970;2022-11-20T17:00:07;6.70;99.90
16066;DHT22;8137;48.952;8.970;2022-11-20T17:02:33;6.70;99.90
16066;DHT22;8137;48.952;8.970;2022-11-20T17:04:58;6.70;99.90
16066;DHT22;8137;48.952;8.970;2022-11-20T17:07:24;6.70;99.90
16066;DHT22;8137;48.952;8.970;2022-11-20T17:09:50;6.70;99.90
16066;DHT22;8137;48.952;8.970;2022-11-20T17:12:15;6.70;99.90
16066;DHT22;8137;48.952;8.970;2022-11-20T17:14:41;6.70;99.90
16066;DHT22;8137;48.952;8.970;2022-11-20T17:17:06;6.70;99.90
16066;DHT22;8137;48.952;8.970;2022-11-20T17:19:32;6.70;99.90
16066;DHT22;8137;48.952;8.970;2022-11-20T17:21:57;6.70;99.90
16066;DHT22;8137;48.952;8.970;2022-11-20T17:24:23;6.70;99.90
16066;DHT22;8137;48.952;8.970;2022-11-20T17:26:49;6.70;99.90
16066;DHT22;8137;48.952;8.970;2022-11-20T17:29:18;6.70;99.90
16066;DHT22;8137;48.952;8.970;2022-11-20T17:31:48;6.70;99.90
16066;DHT22;8137;48.952;8.970;2022-11-20T17:34:15;6.70;99.90
16066;DHT22;8137;48.952;8.970;2022-11-20T17:36:41;6.70;99.90
16066;DHT22;8137;48.952;8.970;2022-11-20T17:39:10;6.70;99.90